Time;durP1;ratioP1;P1;durP2;ratioP2;P2;SDS_P1;SDS_P2;PMS_P1;PMS_P2;Temp;Humidity;BMP_temperature;BMP_pressure;BME280_temperature;BME280_humidity;BME280_pressure;Samples;Min_cycle;Max_cycle;Signal;HPM_P1;HPM_P2
2022/10/13 00:00:30;;;;;;;7.75;3.40;;;;;;;10.03;74.68;100908.16;5107532;28;20028;-30
2022/10/13 00:02:59;;;;;;;9.50;3.50;;;;;;;10.43;73.41;100924.41;5107174;28;20089;-28
2022/10/13 00:05:24;;;;;;;5.50;2.90;;;;;;;10.40;73.83;100932.81;5107499;28;20195;-30
2022/10/13 00:07:50;;;;;;;6.70;3.00;;;;;;;10.38;73.44;100926.00;5107558;28;20485;-28
2022/10/13 00:10:15;;;;;;;7.85;3.38;;;;;;;9.95;74.69;100910.97;5107299;28;20027;-28
2022/10/13 00:12:40;;;;;;;8.23;3.08;;;;;;;10.02;75.16;100921.66;5107229;28;20027;-29
2022/10/13 00:15:07;;;;;;;10.82;3.50;;;;;;;9.98;73.90;100921.22;5088893;28;20034;-28
2022/10/13 00:17:33;;;;;;;9.23;3.58;;;;;;;9.95;73.05;100900.31;5107351;28;20058;-31
2022/10/13 00:19:58;;;;;;;7.20;3.58;;;;;;;10.09;72.91;100932.38;5107229;28;20519;-28
2022/10/13 00:22:26;;;;;;;6.28;2.88;;;;;;;9.95;74.08;100915.44;5107700;28;20055;-27
2022/10/13 00:24:51;;;;;;;7.38;2.80;;;;;;;10.30;73.67;100928.84;5107501;28;20110;-27
2022/10/13 00:27:17;;;;;;;7.35;2.80;;;;;;;9.98;74.58;100934.53;5111353;28;20110;-28
2022/10/13 00:29:43;;;;;;;6.97;2.70;;;;;;;9.86;74.33;100933.44;5111740;28;20031;-29
2022/10/13 00:32:08;;;;;;;6.55;3.13;;;;;;;9.70;72.95;100939.03;5111271;28;20023;-27
2022/10/13 00:34:36;;;;;;;6.85;3.00;;;;;;;9.21;74.54;100916.66;5111248;28;20072;-28
2022/10/13 00:37:02;;;;;;;6.57;2.90;;;;;;;9.46;74.35;100917.13;5111276;28;20051;-27
2022/10/13 00:39:27;;;;;;;6.40;2.28;;;;;;;9.73;73.02;100912.84;5111517;28;20035;-30
2022/10/13 00:41:53;;;;;;;6.50;2.95;;;;;;;9.42;73.98;100910.53;5111485;28;20065;-28
2022/10/13 00:44:56;;;;;;;5.50;2.58;;;;;;;9.79;72.35;100920.06;5092833;28;20028;-27
2022/10/13 00:47:22;;;;;;;6.30;2.63;;;;;;;9.52;74.52;100908.38;5111101;28;20202;-32
2022/10/13 00:49:48;;;;;;;9.20;4.22;;;;;;;9.68;74.92;100895.78;5111307;28;20110;-28
2022/10/13 00:52:16;;;;;;;12.13;3.78;;;;;;;10.00;74.78;100916.53;5092419;28;20024;-26
2022/10/13 00:54:42;;;;;;;7.32;3.53;;;;;;;10.00;75.90;100919.19;5111085;28;20107;-27
2022/10/13 00:57:09;;;;;;;12.75;4.65;;;;;;;10.08;75.06;100922.75;5110708;28;20031;-27
2022/10/13 00:59:36;;;;;;;11.45;3.67;;;;;;;10.22;74.95;100917.28;5110960;28;20035;-30
2022/10/13 01:02:02;;;;;;;12.02;4.03;;;;;;;10.23;75.16;100904.78;5111179;28;20031;-29
2022/10/13 01:04:36;;;;;;;14.13;4.82;;;;;;;10.20;76.35;100913.19;5110947;28;20023;-27
2022/10/13 01:07:04;;;;;;;10.43;5.10;;;;;;;10.19;76.41;100911.53;5110874;28;20032;-29
2022/10/13 01:09:36;;;;;;;11.17;4.70;;;;;;;10.16;75.64;100895.94;5110772;28;20037;-27
2022/10/13 01:12:31;;;;;;;15.18;5.35;;;;;;;10.36;76.01;100912.91;5110906;28;20039;-27
2022/10/13 01:15:33;;;;;;;13.80;6.18;;;;;;;9.95;77.17;100896.81;5092105;28;20035;-30
2022/10/13 01:18:04;;;;;;;11.45;6.10;;;;;;;9.80;77.54;100908.38;5110636;28;20099;-27
2022/10/13 01:20:35;;;;;;;12.73;6.55;;;;;;;9.72;78.09;100921.00;5110770;28;20174;-26
2022/10/13 01:23:22;;;;;;;12.07;6.07;;;;;;;9.84;78.58;100914.16;5110623;28;20523;-29
2022/10/13 01:26:23;;;;;;;11.13;6.15;;;;;;;9.74;78.32;100892.34;5110303;28;20035;-28
2022/10/13 01:29:16;;;;;;;14.35;8.35;;;;;;;9.83;78.44;100908.00;5110560;28;20030;-28
2022/10/13 01:32:02;;;;;;;11.70;6.65;;;;;;;9.92;78.18;100910.53;5110628;28;20694;-27
2022/10/13 01:34:43;;;;;;;13.20;6.55;;;;;;;10.04;77.18;100907.13;5110260;28;20027;-29
2022/10/13 01:37:37;;;;;;;10.75;5.95;;;;;;;9.94;77.70;100909.31;5110017;28;20141;-29
2022/10/13 01:40:18;;;;;;;11.70;5.88;;;;;;;10.11;77.06;100911.69;5092163;28;20047;-28
2022/10/13 01:42:55;;;;;;;11.88;4.95;;;;;;;10.10;76.00;100894.88;5091472;28;20370;-28
2022/10/13 01:45:27;;;;;;;9.70;4.90;;;;;;;10.21;75.50;100901.50;5110451;28;20106;-29
2022/10/13 01:47:54;;;;;;;8.93;4.40;;;;;;;10.29;75.19;100905.84;5110117;28;20063;-29
2022/10/13 01:50:20;;;;;;;9.48;4.35;;;;;;;10.25;75.21;100905.41;5091677;28;20023;-27
2022/10/13 01:52:48;;;;;;;8.55;4.95;;;;;;;10.05;75.83;100902.59;5087748;28;20089;-29
2022/10/13 01:55:13;;;;;;;10.55;4.30;;;;;;;10.12;76.13;100902.69;5089645;28;20055;-27
2022/10/13 01:57:43;;;;;;;17.20;4.70;;;;;;;9.82;77.47;100894.88;5089268;28;20120;-27
2022/10/13 02:00:13;;;;;;;8.07;4.03;;;;;;;9.96;77.02;100891.28;5089688;28;20022;-28
2022/10/13 02:02:53;;;;;;;7.28;3.42;;;;;;;9.97;76.82;100892.94;5089258;28;20036;-30
2022/10/13 02:05:41;;;;;;;6.10;3.63;;;;;;;10.01;76.39;100898.69;5071160;28;20028;-26
2022/10/13 02:08:14;;;;;;;8.98;3.80;;;;;;;10.01;75.37;100888.03;5089095;28;20134;-28
2022/10/13 02:10:51;;;;;;;6.85;3.90;;;;;;;9.76;75.85;100887.66;5089560;28;20507;-28
2022/10/13 02:13:20;;;;;;;7.22;3.70;;;;;;;9.62;75.95;100874.25;5089285;28;20162;-27
2022/10/13 02:15:50;;;;;;;8.35;3.80;;;;;;;9.81;75.92;100875.41;5089246;28;20173;-26
2022/10/13 02:18:19;;;;;;;12.95;4.90;;;;;;;9.64;76.67;100874.88;5089092;28;20168;-30
2022/10/13 02:20:45;;;;;;;7.50;3.80;;;;;;;9.34;77.68;100860.06;5070664;28;20020;-28
2022/10/13 02:23:16;;;;;;;9.15;4.20;;;;;;;8.97;79.47;100875.25;5089004;28;20059;-30
2022/10/13 02:25:43;;;;;;;8.13;4.03;;;;;;;9.11;78.37;100871.72;5070802;28;20055;-30
2022/10/13 02:28:09;;;;;;;9.48;5.85;;;;;;;9.28;77.54;100863.50;5088894;28;20079;-27
2022/10/13 02:30:38;;;;;;;7.07;3.95;;;;;;;9.60;76.54;100884.28;5088738;28;20024;-27
2022/10/13 02:33:04;;;;;;;10.57;4.45;;;;;;;9.62;76.12;100886.72;5087022;28;20040;-30
2022/10/13 02:35:31;;;;;;;11.27;5.18;;;;;;;9.19;78.14;100857.47;5088915;28;20036;-30
2022/10/13 02:37:57;;;;;;;12.00;5.35;;;;;;;9.30;77.42;100864.94;5087245;28;20059;-30
2022/10/13 02:40:22;;;;;;;11.15;5.43;;;;;;;9.48;76.70;100861.84;5088703;28;20024;-28
2022/10/13 02:42:47;;;;;;;12.00;5.07;;;;;;;9.77;76.51;100881.31;5088569;28;20031;-30
2022/10/13 02:45:13;;;;;;;9.15;6.05;;;;;;;9.49;77.21;100868.78;5088573;28;20031;-27
2022/10/13 02:47:39;;;;;;;10.60;5.80;;;;;;;9.61;77.15;100888.56;5087832;28;20497;-27
2022/10/13 02:50:05;;;;;;;10.70;6.47;;;;;;;9.64;77.04;100898.84;5088723;28;20031;-27
2022/10/13 02:52:31;;;;;;;11.48;6.00;;;;;;;9.56;77.48;100903.47;5088399;28;20409;-28
2022/10/13 02:54:56;;;;;;;9.98;5.80;;;;;;;9.43;77.68;100875.69;5088249;28;20043;-27
2022/10/13 02:57:22;;;;;;;10.73;7.28;;;;;;;9.36;78.07;100895.31;5086982;28;20028;-28
2022/10/13 02:59:47;;;;;;;11.45;6.18;;;;;;;9.09;79.13;100888.88;5088457;28;20051;-26
2022/10/13 03:02:12;;;;;;;12.75;6.68;;;;;;;9.04;79.64;100881.47;5088196;28;20115;-27
2022/10/13 03:04:39;;;;;;;10.45;6.35;;;;;;;8.87;79.09;100859.63;5088014;28;20032;-28
2022/10/13 03:07:04;;;;;;;10.50;6.45;;;;;;;9.24;79.14;100879.84;5086613;28;20074;-27
2022/10/13 03:09:30;;;;;;;11.00;5.93;;;;;;;9.28;78.40;100872.31;5088331;28;20051;-31
2022/10/13 03:11:55;;;;;;;10.93;5.68;;;;;;;9.26;78.03;100884.97;5069681;28;20036;-28
2022/10/13 03:14:20;;;;;;;8.25;5.85;;;;;;;9.16;77.98;100864.00;5053174;28;20487;-30
2022/10/13 03:16:46;;;;;;;10.95;5.80;;;;;;;9.26;78.02;100871.66;5087461;28;20566;-29
2022/10/13 03:19:11;;;;;;;11.55;5.80;;;;;;;9.20;78.49;100875.09;5069923;28;20081;-27
2022/10/13 03:21:38;;;;;;;11.52;5.63;;;;;;;9.28;77.54;100876.81;5088149;28;20090;-27
2022/10/13 03:24:06;;;;;;;12.57;6.50;;;;;;;9.13;77.65;100858.22;5087935;28;20028;-27
2022/10/13 03:26:33;;;;;;;11.80;7.22;;;;;;;9.55;77.83;100853.91;5087898;28;20067;-28
2022/10/13 03:28:59;;;;;;;12.70;7.05;;;;;;;9.65;77.57;100867.69;5086361;28;20055;-30
2022/10/13 03:31:25;;;;;;;15.45;6.72;;;;;;;9.62;76.68;100855.59;5087649;28;20024;-29
2022/10/13 03:33:50;;;;;;;11.90;6.25;;;;;;;9.75;75.46;100856.72;5087589;28;20063;-28
2022/10/13 03:36:16;;;;;;;11.50;6.03;;;;;;;9.54;76.32;100869.06;5087975;28;20027;-26
2022/10/13 03:38:42;;;;;;;11.43;6.03;;;;;;;9.63;75.97;100854.56;5087137;28;20074;-27
2022/10/13 03:41:11;;;;;;;14.23;6.53;;;;;;;9.61;75.79;100872.59;5087863;28;20027;-27
2022/10/13 03:43:36;;;;;;;;;;;;;;;9.53;76.69;100875.38;5088104;28;20055;-27
2022/10/13 03:46:03;;;;;;;15.43;6.43;;;;;;;9.19;77.32;100854.78;5087373;28;20721;-28
2022/10/13 03:48:29;;;;;;;19.60;6.30;;;;;;;9.29;75.53;100851.81;5069340;28;20039;-27
2022/10/13 03:50:56;;;;;;;25.08;6.85;;;;;;;8.93;76.66;100852.69;5085830;28;20043;-27
2022/10/13 03:53:23;;;;;;;17.98;6.60;;;;;;;9.07;76.09;100859.78;5087655;28;20016;-29
2022/10/13 03:55:50;;;;;;;21.85;7.28;;;;;;;9.04;76.85;100865.50;5087276;28;20048;-27
2022/10/13 03:58:15;;;;;;;16.48;6.60;;;;;;;8.49;79.08;100869.59;5087397;28;20024;-28
2022/10/13 04:00:40;;;;;;;17.45;7.43;;;;;;;8.53;78.97;100860.22;5086982;28;20047;-28
2022/10/13 04:03:06;;;;;;;16.40;6.68;;;;;;;8.67;78.28;100846.09;5087438;28;20028;-27
2022/10/13 04:05:33;;;;;;;12.13;7.60;;;;;;;8.74;79.95;100862.91;5087166;28;20399;-34
2022/10/13 04:07:58;;;;;;;13.48;7.68;;;;;;;8.76;80.03;100854.75;5087333;28;20052;-27
2022/10/13 04:10:24;;;;;;;14.65;7.05;;;;;;;8.83;79.91;100858.34;5087160;28;20076;-27
2022/10/13 04:12:49;;;;;;;11.32;6.75;;;;;;;8.17;81.27;100842.34;5086669;28;20028;-28
2022/10/13 04:15:15;;;;;;;11.60;6.40;;;;;;;8.22;81.93;100866.56;5087017;28;20427;-29
2022/10/13 04:17:40;;;;;;;15.50;7.95;;;;;;;8.57;79.35;100826.94;5087020;28;20036;-27
2022/10/13 04:20:06;;;;;;;13.38;7.38;;;;;;;8.78;79.76;100860.72;5086916;28;20032;-28
2022/10/13 04:22:32;;;;;;;79.40;11.02;;;;;;;8.42;81.64;100846.41;5087046;28;20031;-26
2022/10/13 04:24:57;;;;;;;22.67;8.60;;;;;;;8.61;81.32;100860.94;5086675;28;20047;-27
2022/10/13 04:27:22;;;;;;;16.88;8.48;;;;;;;8.53;81.69;100838.97;5087185;28;20028;-27
2022/10/13 04:29:48;;;;;;;18.38;8.98;;;;;;;8.41;83.05;100866.00;5068442;28;20032;-27
2022/10/13 04:32:13;;;;;;;15.60;8.75;;;;;;;8.39;83.48;100860.03;5087179;28;20024;-30
2022/10/13 04:34:39;;;;;;;13.27;8.45;;;;;;;8.42;83.05;100866.84;5087162;28;20476;-28
2022/10/13 04:37:04;;;;;;;15.32;8.38;;;;;;;8.44;82.64;100876.28;5087211;28;20488;-27
2022/10/13 04:39:30;;;;;;;15.77;8.07;;;;;;;8.28;82.34;100849.88;5086929;28;20028;-29
2022/10/13 04:41:55;;;;;;;16.33;8.57;;;;;;;8.21;83.17;100854.25;5085402;28;20036;-30
2022/10/13 04:44:21;;;;;;;15.43;8.30;;;;;;;8.20;83.73;100874.69;5086581;28;20381;-30
2022/10/13 04:46:46;;;;;;;20.67;9.52;;;;;;;8.49;83.04;100867.75;5086703;28;20028;-28
2022/10/13 04:49:12;;;;;;;14.07;8.77;;;;;;;8.48;82.81;100867.94;5086877;28;20032;-26
2022/10/13 04:51:37;;;;;;;15.52;9.02;;;;;;;8.58;81.81;100850.69;5086720;28;20063;-31
2022/10/13 04:54:04;;;;;;;16.50;9.82;;;;;;;8.67;81.91;100877.19;5086843;28;20051;-27
2022/10/13 04:56:30;;;;;;;12.20;6.38;;;;;;;8.47;81.94;100880.41;5086593;28;20423;-28
2022/10/13 04:58:56;;;;;;;12.93;6.72;;;;;;;8.33;81.20;100852.78;5086428;28;20039;-27
2022/10/13 05:01:23;;;;;;;13.35;6.45;;;;;;;8.49;80.67;100878.38;5086429;28;20032;-27
2022/10/13 05:03:58;;;;;;;15.57;8.13;;;;;;;8.58;81.42;100865.81;5086449;28;20716;-28
2022/10/13 05:06:29;;;;;;;12.55;8.50;;;;;;;8.92;80.69;100885.63;5086431;28;20032;-28
2022/10/13 05:08:55;;;;;;;19.52;9.98;;;;;;;9.11;79.90;100877.03;5067976;28;20031;-30
2022/10/13 05:11:21;;;;;;;21.95;10.75;;;;;;;9.24;79.62;100887.81;5085664;28;20402;-28
2022/10/13 05:13:47;;;;;;;19.20;10.98;;;;;;;9.24;79.43;100861.22;5090537;28;20028;-26
2022/10/13 05:16:15;;;;;;;22.08;11.90;;;;;;;9.37;79.54;100888.97;5090534;28;20208;-27
2022/10/13 05:18:41;;;;;;;19.63;12.15;;;;;;;9.61;79.11;100877.91;5090315;28;20028;-30
2022/10/13 05:21:12;;;;;;;20.58;13.68;;;;;;;9.73;78.25;100886.19;5090261;28;20028;-29
2022/10/13 05:23:38;;;;;;;24.05;14.40;;;;;;;9.62;78.96;100886.72;5090068;28;20086;-27
2022/10/13 05:26:07;;;;;;;22.50;14.13;;;;;;;9.71;79.49;100898.06;5089883;28;20025;-27
2022/10/13 05:28:32;;;;;;;21.13;14.15;;;;;;;9.86;79.83;100890.81;5090147;28;20028;-28
2022/10/13 05:31:10;;;;;;;22.67;14.38;;;;;;;9.99;79.45;100904.22;5090161;28;20412;-30
2022/10/13 05:33:36;;;;;;;46.20;16.20;;;;;;;10.06;79.96;100890.94;5090248;28;20036;-27
2022/10/13 05:36:07;;;;;;;21.13;14.27;;;;;;;10.23;79.97;100908.25;5089875;28;20465;-27
2022/10/13 05:38:32;;;;;;;25.70;14.07;;;;;;;10.35;79.71;100897.91;5089809;28;20059;-29
2022/10/13 05:41:07;;;;;;;17.65;12.32;;;;;;;9.87;80.38;100876.47;5089555;28;20024;-26
2022/10/13 05:43:33;;;;;;;23.95;13.48;;;;;;;10.08;80.61;100904.09;5089755;28;20111;-27
2022/10/13 05:45:59;;;;;;;31.38;14.32;;;;;;;10.23;80.57;100891.44;5089466;28;20032;-27
2022/10/13 05:48:26;;;;;;;21.38;13.43;;;;;;;10.47;80.01;100913.38;5089688;28;20028;-28
2022/10/13 05:50:51;;;;;;;26.30;15.68;;;;;;;10.49;80.70;100914.81;5089400;28;20063;-27
2022/10/13 05:53:17;;;;;;;28.55;18.13;;;;;;;10.64;80.46;100894.19;5089827;28;20067;-27
2022/10/13 05:55:43;;;;;;;26.52;17.67;;;;;;;11.01;79.42;100915.22;5089596;28;20027;-33
2022/10/13 05:58:08;;;;;;;28.55;17.20;;;;;;;11.05;79.67;100908.44;5089714;28;20044;-27
2022/10/13 06:00:34;;;;;;;31.30;18.98;;;;;;;10.99;79.62;100920.78;5089394;28;20449;-31
2022/10/13 06:03:16;;;;;;;26.65;18.05;;;;;;;10.80;80.99;100903.66;5089236;28;20431;-28
2022/10/13 06:05:46;;;;;;;29.42;17.42;;;;;;;11.03;81.28;100897.16;5070782;28;20024;-29
2022/10/13 06:08:13;;;;;;;27.90;19.95;;;;;;;11.11;81.06;100904.97;5089570;28;20032;-27
2022/10/13 06:10:39;;;;;;;31.60;19.67;;;;;;;11.27;82.94;100930.47;5088805;28;20027;-26
2022/10/13 06:13:04;;;;;;;26.42;18.52;;;;;;;11.10;81.06;100900.69;5089383;28;20027;-27
2022/10/13 06:15:30;;;;;;;33.15;17.95;;;;;;;11.27;81.29;100914.47;5088793;28;20080;-28
2022/10/13 06:17:55;;;;;;;30.92;19.20;;;;;;;11.29;80.68;100899.06;5088824;28;20499;-27
2022/10/13 06:20:21;;;;;;;28.90;18.58;;;;;;;11.48;79.00;100920.66;5089116;28;20028;-28
2022/10/13 06:22:48;;;;;;;27.58;18.85;;;;;;;11.63;81.22;100927.47;5087675;28;20115;-28
2022/10/13 06:25:14;;;;;;;31.80;19.80;;;;;;;11.58;78.71;100929.91;5088861;28;20052;-28
2022/10/13 06:27:39;;;;;;;26.92;17.02;;;;;;;11.56;78.63;100918.59;5088956;28;20471;-29
2022/10/13 06:30:05;;;;;;;29.95;17.77;;;;;;;11.55;78.80;100924.16;5070210;28;20024;-27
2022/10/13 06:32:31;;;;;;;26.70;17.38;;;;;;;11.42;78.69;100908.94;5088247;28;20075;-29
2022/10/13 06:34:56;;;;;;;27.60;17.77;;;;;;;11.69;77.22;100933.00;5088694;28;20786;-30
2022/10/13 06:37:22;;;;;;;26.35;16.58;;;;;;;11.60;78.11;100919.03;5087244;28;20048;-28
2022/10/13 06:39:47;;;;;;;28.65;16.83;;;;;;;11.73;80.32;100939.56;5088667;28;20020;-27
2022/10/13 06:42:12;;;;;;;25.02;16.23;;;;;;;12.01;80.10;100929.56;5053623;28;20031;-27
2022/10/13 06:44:38;;;;;;;27.98;16.15;;;;;;;12.35;77.68;100921.47;5087900;28;20496;-27
2022/10/13 06:47:04;;;;;;;24.65;16.38;;;;;;;12.57;76.98;100919.34;5088051;28;20044;-28
2022/10/13 06:49:30;;;;;;;25.30;15.77;;;;;;;12.73;75.72;100934.94;5088371;28;20028;-29
2022/10/13 06:51:56;;;;;;;24.95;15.43;;;;;;;12.61;76.18;100899.97;5088319;28;20032;-28
2022/10/13 06:54:21;;;;;;;22.73;14.52;;;;;;;12.90;74.89;100915.72;5088069;28;20538;-29
2022/10/13 06:56:46;;;;;;;24.17;14.63;;;;;;;12.74;74.48;100898.28;5087857;28;20034;-28
2022/10/13 06:59:12;;;;;;;25.90;16.30;;;;;;;13.03;74.80;100907.59;5087742;28;20683;-28
2022/10/13 07:01:38;;;;;;;23.50;14.95;;;;;;;12.89;75.24;100895.31;5087798;28;20092;-28
2022/10/13 07:04:03;;;;;;;25.95;15.52;;;;;;;13.01;74.84;100923.06;5088013;28;20051;-27
2022/10/13 07:06:29;;;;;;;23.90;15.43;;;;;;;12.94;75.03;100920.44;5088103;28;20024;-28
2022/10/13 07:08:54;;;;;;;22.33;14.32;;;;;;;12.95;74.90;100906.00;5087801;28;20054;-28
2022/10/13 07:11:20;;;;;;;20.73;14.77;;;;;;;12.95;74.73;100915.88;5087618;28;20028;-28
2022/10/13 07:13:45;;;;;;;20.75;14.07;;;;;;;13.04;74.66;100914.63;5087913;28;20396;-29
2022/10/13 07:16:10;;;;;;;20.65;12.65;;;;;;;13.07;74.49;100912.31;5087712;28;20032;-29
2022/10/13 07:18:36;;;;;;;20.25;12.60;;;;;;;13.24;73.95;100893.09;5087394;28;20044;-26
2022/10/13 07:21:02;;;;;;;20.48;14.25;;;;;;;13.44;73.44;100899.16;5087593;28;20482;-27
2022/10/13 07:23:28;;;;;;;21.95;14.07;;;;;;;13.47;72.72;100892.53;5069421;28;20420;-29
2022/10/13 07:25:56;;;;;;;22.67;12.85;;;;;;;13.79;71.77;100905.88;5087641;28;20035;-29
2022/10/13 07:28:23;;;;;;;20.88;13.20;;;;;;;13.81;71.30;100887.72;5087737;28;20051;-29
2022/10/13 07:30:48;;;;;;;24.85;16.83;;;;;;;14.19;71.18;100902.84;5087058;28;20467;-27
2022/10/13 07:33:13;;;;;;;19.92;12.60;;;;;;;14.26;71.32;100903.56;5087610;28;20098;-28
2022/10/13 07:35:39;;;;;;;22.98;15.15;;;;;;;14.34;70.24;100889.03;5087240;28;20036;-27
2022/10/13 07:38:06;;;;;;;26.50;17.13;;;;;;;14.38;70.48;100901.78;5087056;28;20055;-27
2022/10/13 07:40:31;;;;;;;25.38;14.98;;;;;;;14.52;70.00;100904.31;5087514;28;20090;-29
2022/10/13 07:42:57;;;;;;;20.08;12.43;;;;;;;14.41;69.88;100868.34;5086881;28;20044;-29
2022/10/13 07:45:23;;;;;;;19.88;12.57;;;;;;;14.72;69.10;100894.19;5087060;28;20031;-29
2022/10/13 07:47:48;;;;;;;21.80;13.27;;;;;;;15.00;68.36;100888.25;5087055;28;20042;-27
2022/10/13 07:50:14;;;;;;;21.88;12.65;;;;;;;15.04;69.07;100869.81;5087169;28;20024;-29
2022/10/13 07:52:39;;;;;;;19.00;11.15;;;;;;;15.00;67.70;100876.69;5087416;28;20036;-27
2022/10/13 07:55:05;;;;;;;20.33;12.02;;;;;;;15.11;66.84;100881.28;5086926;28;20028;-30
2022/10/13 07:57:31;;;;;;;19.60;12.50;;;;;;;15.25;69.97;100849.66;5087043;28;20511;-31
2022/10/13 07:59:56;;;;;;;16.95;11.25;;;;;;;15.59;68.48;100850.75;5086747;28;20082;-28
2022/10/13 08:02:21;;;;;;;17.63;11.55;;;;;;;15.68;65.29;100848.53;5087231;28;20034;-30
2022/10/13 08:04:47;;;;;;;16.05;11.45;;;;;;;15.64;66.37;100864.31;5086866;28;20020;-30
2022/10/13 08:07:15;;;;;;;19.77;12.13;;;;;;;15.93;65.85;100851.00;5086922;28;20039;-30
2022/10/13 08:09:40;;;;;;;19.10;12.40;;;;;;;16.24;64.64;100873.19;5069143;28;20031;-28
2022/10/13 08:12:06;;;;;;;18.42;11.63;;;;;;;16.31;66.61;100844.31;5087000;28;20536;-28
2022/10/13 08:14:31;;;;;;;17.70;11.48;;;;;;;16.16;63.93;100860.13;5085645;28;20473;-28
2022/10/13 08:16:57;;;;;;;18.67;11.98;;;;;;;16.22;65.93;100832.25;5086749;28;20032;-30
2022/10/13 08:19:25;;;;;;;18.63;11.20;;;;;;;16.44;63.31;100849.41;5087124;28;20024;-31
2022/10/13 08:21:50;;;;;;;;;;;;;;;16.79;62.43;100864.63;5069579;28;20122;-28
2022/10/13 08:24:16;;;;;;;18.85;11.10;;;;;;;16.99;63.44;100833.75;5085200;28;20053;-29
2022/10/13 08:26:43;;;;;;;17.77;9.00;;;;;;;17.45;60.94;100850.72;5086390;28;20025;-28
2022/10/13 08:29:09;;;;;;;12.90;8.70;;;;;;;17.77;58.39;100845.53;5068400;28;20039;-31
2022/10/13 08:31:34;;;;;;;12.73;7.28;;;;;;;17.70;57.28;100852.97;5086825;28;20769;-29
2022/10/13 08:34:00;;;;;;;9.43;4.90;;;;;;;17.41;57.71;100846.88;5086698;28;20180;-29
2022/10/13 08:36:25;;;;;;;7.78;4.63;;;;;;;17.70;58.87;100841.38;5086828;28;20032;-29
2022/10/13 08:38:52;;;;;;;7.88;4.88;;;;;;;18.03;56.31;100854.03;5086117;28;20044;-28
2022/10/13 08:41:39;;;;;;;11.27;5.75;;;;;;;18.05;55.39;100850.00;5086691;28;20024;-29
2022/10/13 08:44:14;;;;;;;9.37;4.93;;;;;;;18.13;57.65;100837.97;5086617;28;20107;-31
2022/10/13 08:46:56;;;;;;;10.75;6.82;;;;;;;18.37;58.61;100818.78;5087889;28;20678;-28
2022/10/13 08:49:21;;;;;;;11.18;6.40;;;;;;;18.43;54.58;100840.22;5090712;28;20028;-28
2022/10/13 08:51:47;;;;;;;10.13;5.70;;;;;;;18.57;56.27;100839.81;5089095;28;20035;-27
2022/10/13 08:54:14;;;;;;;9.43;5.78;;;;;;;18.32;54.36;100822.25;5090777;28;20032;-27
2022/10/13 08:56:42;;;;;;;10.45;5.35;;;;;;;18.54;50.96;100818.75;5071957;28;20028;-29
2022/10/13 08:59:14;;;;;;;9.65;5.03;;;;;;;18.52;55.69;100810.88;5090336;28;20070;-28
2022/10/13 09:01:40;;;;;;;11.80;6.18;;;;;;;18.89;53.22;100812.09;5090407;28;20035;-28
2022/10/13 09:04:35;;;;;;;9.48;5.50;;;;;;;19.04;52.61;100828.44;5071847;28;20032;-30
2022/10/13 09:07:14;;;;;;;8.20;5.00;;;;;;;19.10;51.35;100822.00;5072014;28;20043;-28
2022/10/13 09:09:40;;;;;;;9.73;5.53;;;;;;;19.31;51.80;100811.34;5088770;28;20092;-28
2022/10/13 09:12:06;;;;;;;11.15;5.60;;;;;;;19.30;51.16;100820.56;5090015;28;20020;-31
2022/10/13 09:14:35;;;;;;;12.43;4.28;;;;;;;19.56;49.93;100813.44;5094504;28;20028;-28
2022/10/13 09:17:15;;;;;;;8.52;4.93;;;;;;;19.81;50.83;100810.91;5109886;28;20051;-29
2022/10/13 09:19:41;;;;;;;9.45;4.13;;;;;;;19.80;50.30;100809.31;5108705;27;20062;-31
2022/10/13 09:22:12;;;;;;;6.85;3.85;;;;;;;19.99;48.80;100819.69;5089814;28;20051;-29
2022/10/13 09:24:38;;;;;;;10.95;4.60;;;;;;;20.11;49.85;100805.94;5089306;28;20028;-28
2022/10/13 09:27:14;;;;;;;6.75;4.05;;;;;;;20.38;48.74;100814.69;5089469;28;20411;-27
2022/10/13 09:29:39;;;;;;;10.95;5.13;;;;;;;20.55;47.57;100819.06;5089728;28;20491;-28
2022/10/13 09:32:18;;;;;;;6.78;4.35;;;;;;;20.37;48.90;100806.81;5089858;28;20024;-29
2022/10/13 09:34:44;;;;;;;9.13;4.70;;;;;;;20.81;46.55;100823.50;5089468;28;20172;-30
2022/10/13 09:37:20;;;;;;;53.05;7.40;;;;;;;20.51;47.83;100812.56;5071175;28;20081;-28
2022/10/13 09:39:46;;;;;;;6.82;3.30;;;;;;;20.60;45.84;100808.28;5089384;28;20559;-30
2022/10/13 09:42:26;;;;;;;8.15;3.67;;;;;;;20.58;46.74;100796.88;5089399;28;20127;-29
2022/10/13 09:45:01;;;;;;;9.32;3.95;;;;;;;21.00;47.05;100804.00;5089138;28;20404;-29
2022/10/13 09:47:29;;;;;;;9.70;4.50;;;;;;;20.83;48.22;100802.34;5089575;28;20031;-28
2022/10/13 09:50:17;;;;;;;9.50;3.92;;;;;;;20.96;47.89;100800.19;5071021;28;20404;-28
2022/10/13 09:52:44;;;;;;;8.85;3.22;;;;;;;20.86;45.99;100796.41;5070639;28;20108;-30
2022/10/13 09:55:30;;;;;;;11.80;4.80;;;;;;;21.05;46.56;100796.69;5089444;28;20536;-28
2022/10/13 09:58:04;;;;;;;7.57;4.05;;;;;;;21.07;46.80;100780.16;5088695;28;20886;-29
2022/10/13 10:00:30;;;;;;;7.28;4.20;;;;;;;21.52;44.65;100792.06;5089069;28;20034;-29
2022/10/13 10:03:18;;;;;;;7.32;3.60;;;;;;;21.57;46.04;100783.09;5088616;28;20028;-31
2022/10/13 10:06:05;;;;;;;6.50;3.58;;;;;;;21.55;44.77;100772.50;5087485;28;20055;-31
2022/10/13 10:08:49;;;;;;;6.97;3.95;;;;;;;21.54;43.76;100765.47;5088993;28;20032;-28
2022/10/13 10:11:19;;;;;;;7.78;3.85;;;;;;;21.69;44.21;100750.22;5088706;28;20094;-31
2022/10/13 10:13:48;;;;;;;8.20;3.33;;;;;;;21.73;44.28;100745.88;5088942;28;20032;-29
2022/10/13 10:16:16;;;;;;;18.65;4.95;;;;;;;22.24;42.84;100759.25;5088924;28;20051;-27
2022/10/13 10:18:57;;;;;;;7.55;3.58;;;;;;;22.40;42.21;100741.75;5088556;28;20115;-28
2022/10/13 10:22:02;;;;;;;7.20;3.58;;;;;;;21.79;43.24;100750.19;5088518;28;20028;-27
2022/10/13 10:24:35;;;;;;;5.85;3.20;;;;;;;22.52;43.83;100752.28;5081874;28;20514;-28
2022/10/13 10:27:09;;;;;;;6.03;3.30;;;;;;;23.02;40.00;100744.03;5088730;28;20115;-29
2022/10/13 10:30:00;;;;;;;8.07;3.55;;;;;;;23.23;39.66;100736.50;5070783;28;20463;-30
2022/10/13 10:32:29;;;;;;;8.65;5.03;;;;;;;23.26;38.99;100734.03;5070242;28;20172;-28
2022/10/13 10:34:57;;;;;;;9.85;4.10;;;;;;;23.53;38.25;100734.56;5088145;28;20108;-29
2022/10/13 10:37:28;;;;;;;9.75;3.17;;;;;;;23.46;38.18;100734.91;5086991;28;20060;-28
2022/10/13 10:40:03;;;;;;;5.40;2.63;;;;;;;23.20;39.01;100696.28;5088303;28;20047;-31
2022/10/13 10:42:43;;;;;;;7.55;3.05;;;;;;;23.38;37.53;100719.22;5088714;28;20035;-28
2022/10/13 10:45:16;;;;;;;5.80;3.00;;;;;;;23.35;38.38;100704.25;5088347;28;20123;-30
2022/10/13 10:47:45;;;;;;;9.57;4.55;;;;;;;23.46;38.04;100704.97;5088486;28;20035;-32
2022/10/13 10:50:15;;;;;;;7.18;3.40;;;;;;;23.08;37.77;100701.28;5088104;28;20136;-28
2022/10/13 10:52:59;;;;;;;7.57;3.45;;;;;;;23.13;37.62;100696.63;5087888;28;20028;-30
2022/10/13 10:55:51;;;;;;;8.35;3.00;;;;;;;22.99;38.93;100698.34;5086545;28;20024;-29
2022/10/13 10:58:26;;;;;;;7.50;3.45;;;;;;;22.95;38.51;100697.31;5088044;28;20028;-28
2022/10/13 11:01:16;;;;;;;9.55;3.30;;;;;;;23.65;37.21;100694.94;5086316;28;20085;-29
2022/10/13 11:03:54;;;;;;;8.85;2.90;;;;;;;23.96;36.71;100691.84;5088379;28;20024;-29
2022/10/13 11:06:19;;;;;;;;;;;;;;;24.09;35.66;100675.88;5070253;28;20042;-30
2022/10/13 11:08:46;;;;;;;6.77;3.07;;;;;;;24.18;36.77;100685.81;5087199;28;19912;-34
2022/10/13 11:11:21;;;;;;;6.20;4.30;;;;;;;24.50;34.08;100680.72;5087856;28;20676;-28
2022/10/13 11:13:55;;;;;;;8.02;4.55;;;;;;;24.49;34.50;100654.53;5087229;28;20058;-29
2022/10/13 11:16:29;;;;;;;6.53;3.50;;;;;;;24.55;35.24;100669.75;5087768;28;20843;-29
2022/10/13 11:19:07;;;;;;;6.50;3.47;;;;;;;24.39;35.13;100650.88;5085968;28;20108;-28
2022/10/13 11:21:51;;;;;;;;;;;;;;;23.88;34.90;100662.53;5088368;28;20466;-31
2022/10/13 11:24:35;;;;;;;10.95;4.43;;;;;;;23.50;35.95;100654.28;5087143;28;19973;-30
2022/10/13 11:27:06;;;;;;;8.50;4.47;;;;;;;23.68;36.24;100658.16;5087454;28;20066;-29
2022/10/13 11:29:56;;;;;;;9.15;4.43;;;;;;;24.37;34.15;100642.19;5087606;28;20032;-31
2022/10/13 11:32:54;;;;;;;13.88;7.60;;;;;;;24.29;34.95;100650.22;5087474;28;20025;-31